Sant Martí Sacalm





Hora UTC 08:10
Temperatura 9.5 ºC
Humitat 56.0 %
Pressió 1016.6 hPa
Pluja 0.0 mm
Velocitat vent 9.5 km/h
Direcció vent NNE
Radiació solar 564.3 W/m²

Dades diàries 2021-04-19



Hora UTC (hivern +1h; estiu +2h)
Temperatura (ºC) Humitat (%) Pressió (hPa) Velocitat vent (km/h) Precipitació (mm) Radiació solar (W/m²)
Hora UTC Aire Humitat Pressió Vel. Dir. Vel. Max Dir. Intent. màx 5 min. Rad. Sol.
00:05 6.0 65.3 1017.7 7.1 SW 7.1 SW 0.0 0.1
00:10 6.1 65.7 1017.6 6.0 SW 7.1 SW 0.0 0.1
00:15 6.1 66.6 1017.6 7.1 SSW 8.1 SSW 0.0 0.1
00:20 6.1 66.6 1017.6 7.3 SSW 8.5 SW 0.0 0.1
00:25 6.0 67.1 1017.5 6.7 SW 7.8 SW 0.0 0.1
00:30 6.0 67.4 1017.5 6.8 SW 7.4 SW 0.0 0.1
00:35 6.2 66.6 1017.5 7.4 SW 8.5 SW 0.0 0.1
00:40 6.3 65.9 1017.4 7.8 SSW 8.5 SW 0.0 0.1
00:45 6.5 65.1 1017.3 7.3 SSW 8.1 SSW 0.0 0.1
00:50 6.4 64.5 1017.3 6.6 SSW 8.5 SSW 0.0 0.1
00:55 6.4 64.2 1017.3 5.7 SSW 7.1 SSW 0.0 0.1
01:00 6.4 65.1 1017.2 6.2 SW 7.1 SSW 0.0 0.1
01:05 6.1 66.0 1017.2 5.6 SW 7.1 SW 0.0 0.1
01:10 6.1 66.0 1017.2 5.1 SW 7.8 SW 0.0 0.1
01:15 6.2 64.7 1017.1 7.2 SW 11.7 W 0.0 0.1
01:20 6.4 63.9 1017.0 6.6 SW 9.2 WSW 0.0 0.1
01:25 6.5 62.9 1017.0 6.7 WSW 12.4 W 0.0 0.1
01:30 6.7 61.5 1017.0 5.6 WSW 10.6 WSW 0.0 0.1
01:35 6.8 60.5 1017.0 4.6 WSW 7.8 SW 0.0 0.1
01:40 6.8 59.7 1017.0 3.4 WSW 6.4 W 0.0 0.1
01:45 6.7 60.0 1016.9 4.7 WSW 8.8 W 0.0 0.1
01:50 6.9 59.2 1016.9 7.4 WSW 11.3 WSW 0.0 0.1
01:55 6.9 58.8 1016.9 6.9 WSW 11.3 WSW 0.0 0.1
02:00 7.0 58.1 1016.8 7.1 WSW 11.0 W 0.0 0.1
02:05 6.8 59.5 1016.8 8.3 SW 10.6 WSW 0.0 0.1
02:10 6.7 59.9 1016.8 8.5 SW 10.6 SW 0.0 0.1
02:15 6.6 60.5 1016.8 9.2 SW 12.7 WSW 0.0 0.1
02:20 6.7 59.9 1016.9 11.2 WSW 14.1 SW 0.0 0.1
02:25 6.7 59.9 1016.9 11.1 WSW 14.8 WSW 0.0 0.1
02:30 6.6 60.7 1016.9 10.2 WSW 13.8 WSW 0.0 0.1
02:35 6.5 61.1 1016.8 9.6 SW 12.4 WSW 0.0 0.1
02:40 6.4 61.2 1016.8 9.6 SW 13.8 WSW 0.0 0.1
02:45 6.7 60.0 1016.8 11.2 WSW 13.8 SW 0.0 0.1
02:50 6.6 60.6 1016.8 6.4 SW 9.2 SW 0.0 0.1
02:55 6.4 61.1 1016.8 3.9 SSW 6.0 SSW 0.0 0.1
03:00 6.3 61.7 1016.7 2.9 SSW 4.2 SSW 0.0 0.1
03:05 6.3 61.4 1016.7 4.0 SW 5.3 SW 0.0 0.1
03:10 6.5 60.1 1016.8 3.0 WSW 5.0 SW 0.0 0.1
03:15 7.0 58.4 1016.7 2.9 NNW 5.7 N 0.0 0.1
03:20 7.2 57.7 1016.7 3.0 NNE 5.7 NE 0.0 0.1
03:25 7.2 58.0 1016.7 4.8 NNE 6.0 N 0.0 0.1
03:30 7.3 57.7 1016.6 5.1 NNE 6.0 NNE 0.0 0.1
03:35 7.3 57.5 1016.6 5.5 NNE 8.5 N 0.0 0.1
03:40 7.2 58.2 1016.6 7.2 N 9.9 NE 0.0 0.1
03:45 7.2 58.4 1016.5 7.1 N 9.5 NNW 0.0 0.1
03:50 7.2 58.5 1016.5 7.4 N 10.3 SSW 0.0 0.1
03:55 7.2 58.5 1016.4 5.9 N 9.9 NNW 0.0 0.1
04:00 7.2 58.5 1016.4 3.7 N 6.0 NNW 0.0 0.1
04:05 7.2 58.8 1016.4 2.6 NNE 5.3 NNE 0.0 0.1
04:10 7.0 59.8 1016.4 3.4 NNE 6.7 NNE 0.0 0.1
04:15 6.8 60.3 1016.4 2.5 NE 5.3 NNE 0.0 0.1
04:20 6.7 61.1 1016.4 6.9 NNE 10.6 N 0.0 0.1
04:25 6.7 61.0 1016.4 9.0 NNE 13.4 NNE 0.0 0.1
04:30 6.7 61.4 1016.4 9.8 NNE 14.5 NNE 0.0 0.1
04:35 6.7 61.2 1016.3 10.0 NNE 14.8 NNE 0.0 0.1
04:40 6.7 60.7 1016.3 10.1 NNE 15.5 N 0.0 0.1
04:45 6.7 61.0 1016.3 9.6 NNE 14.8 NNE 0.0 0.2
04:50 6.7 60.8 1016.3 9.3 NNE 13.1 NE 0.0 0.3
04:55 6.7 60.5 1016.4 8.7 NNE 14.1 NNE 0.0 0.8
05:00 6.7 60.4 1016.4 8.1 NNE 15.2 NNE 0.0 2.1
05:05 6.7 60.6 1016.4 8.5 NNE 13.4 NNE 0.0 3.7
05:10 6.6 61.0 1016.4 9.1 NE 16.2 NNE 0.0 6.0
05:15 6.5 61.8 1016.4 9.8 NE 18.0 NE 0.0 9.3
05:20 6.3 63.2 1016.5 10.5 NNE 17.3 NNE 0.0 15.9
05:25 6.1 64.3 1016.5 10.0 NE 19.4 NNE 0.0 24.4
05:30 6.1 64.0 1016.5 10.5 NNE 20.1 N 0.0 33.4
05:35 6.2 63.9 1016.6 11.1 NE 18.0 NE 0.0 46.4
05:40 6.4 63.1 1016.6 10.1 NE 17.0 NNE 0.0 46.4
05:45 6.4 63.0 1016.6 9.0 NE 12.7 NNE 0.0 52.4
05:50 6.5 62.4 1016.6 8.0 NE 13.4 NE 0.0 89.7
05:55 6.7 62.4 1016.6 6.7 NE 11.3 NNE 0.0 115.8
06:00 6.9 62.0 1016.7 9.4 NE 12.0 NE 0.0 136.3
06:05 7.1 60.9 1016.7 10.0 ENE 13.8 NE 0.0 148.1
06:10 7.2 60.5 1016.7 10.1 ENE 16.2 ENE 0.0 145.0
06:15 7.2 60.7 1016.7 8.4 NE 13.4 ENE 0.0 121.6
06:20 7.3 61.0 1016.7 6.1 NE 11.7 NE 0.0 216.5
06:25 7.6 61.1 1016.7 6.0 NE 9.9 ENE 0.0 269.6
06:30 7.8 60.3 1016.8 5.2 NE 8.8 NNE 0.0 215.5
06:35 7.8 60.2 1016.8 4.8 NE 9.5 NE 0.0 222.8
06:40 7.9 59.8 1016.8 6.1 NE 10.3 NNE 0.0 310.6
06:45 8.3 59.5 1016.8 5.4 NE 9.5 NE 0.0 262.0
06:50 8.2 59.7 1016.8 6.2 NE 9.5 NE 0.0 292.5
06:55 8.4 59.5 1016.8 6.4 NNE 10.3 NNE 0.0 320.0
07:00 8.5 59.4 1016.7 5.9 NNE 10.3 NNE 0.0 318.1
07:05 8.4 59.3 1016.7 5.5 NNE 9.9 NE 0.0 347.0
07:10 8.6 59.7 1016.8 4.7 NE 9.9 N 0.0 203.1
07:15 8.4 60.7 1016.8 3.7 NNE 6.4 NNE 0.0 172.7
07:20 8.2 62.3 1016.8 4.2 NNE 7.4 NNE 0.0 198.3
07:25 8.2 62.7 1016.8 4.9 NNE 7.4 NNE 0.0 261.7
07:30 8.3 63.7 1016.7 3.5 NNE 5.7 NNE 0.0 334.3
07:35 8.4 61.3 1016.7 4.4 NNE 7.1 NNE 0.0 352.6
07:40 8.5 61.2 1016.7 5.6 NNE 8.8 NNE 0.0 457.8
07:45 8.8 58.3 1016.7 4.8 NNE 9.9 NNE 0.0 486.5
07:50 8.8 57.5 1016.6 5.7 NNE 9.5 NNE 0.0 506.7
07:55 9.2 55.9 1016.6 8.6 NNE 11.7 NNE 0.0 520.9
08:00 9.4 55.8 1016.6 8.3 NNE 13.1 NNE 0.0 535.1
08:05 9.4 55.5 1016.6 9.0 NNE 12.4 NNE 0.0 550.0
08:10 9.5 56.0 1016.6 9.5 NNE 12.7 N 0.0 564.3
Màxima 9.6 67.4 1017.7 11.2 WSW 20.1 N 0.0 564.3
Mínima 5.9 55.5 1016.3
Total 0.0